< < Back
Terminal Aerodrome Forecast


Current Version              Previous Versions:   1  2  3  4  5  6  7  8  9  

Terminal Aerodrome Forecast

365
FTUS42 KILM 302320
TAFILM
TAF
KILM 302320Z 3100/3124 VRB02KT P6SM SCT060 SCT100
     FM311000 01003KT P6SM FEW005 SCT150
     FM311300 05006KT P6SM VCSH SCT030 BKN150
     FM311800 10008KT P6SM VCTS SCT050CB BKN120=

Latest METAR

886
SAUS70 KWBC 310400 RRP
MTRILM
METAR KILM 310353Z AUTO 00000KT 10SM CLR 24/23 A3001 RMK AO2 SLP163
T02390233


USA.gov is the U.S. government's official web portal to all federal, state and local government web resources and services.